Big Bear Station Historical Data
Daily Summary for July 12, 2019 Units:  English    Metric   Both
Next Day »
Daily Weekly Monthly Yearly Custom
  High: Low: Average:
Temperature: 89.1 °F 51.3 °F 68.7 °F
Dew Point: 51.6 °F 34.6 °F 43.4 °F
Humidity: 76% 21% 45%
Wind Speed: 3.7mph 0mph 0.1mph
Wind Gust: -999mph - -
Wind- - West
Pressure: 23.62 in 23.56 in -
Precipitation: 0 in    
Historical Graphs
 
 
Tabular Data for July 12, 2019
Time Temperature Dew Point Pressure Wind Wind Speed Wind Gust Humidity Rainfall Rate (Hourly)
00:09 57.2 °F 43.9 °F 23.62 in Calm   -999 mph 61% 0.00 in
00:25 56.5 °F 42.8 °F 23.62 in Calm   -999 mph 60% 0.00 in
00:40 55.9 °F 43.1 °F 23.62 in Calm   -999 mph 62% 0.00 in
00:55 55.8 °F 42.6 °F 23.62 in Calm   -999 mph 61% 0.00 in
01:10 55.4 °F 42.6 °F 23.61 in Calm   -999 mph 62% 0.00 in
01:26 55.2 °F 43.2 °F 23.61 in Calm   -999 mph 64% 0.00 in
01:41 54.7 °F 44.3 °F 23.61 in Calm   -999 mph 68% 0.00 in
01:56 54.3 °F 43.6 °F 23.61 in Calm   -999 mph 67% 0.00 in
02:11 54.1 °F 43.4 °F 23.61 in Calm   -999 mph 67% 0.00 in
02:26 54 °F 42.1 °F 23.61 in Calm   -999 mph 64% 0.00 in
02:42 53.8 °F 43.1 °F 23.60 in Calm   -999 mph 67% 0.00 in
02:57 53.2 °F 42.1 °F 23.60 in Calm   -999 mph 66% 0.00 in
03:12 53.1 °F 42.8 °F 23.60 in Calm   -999 mph 68% 0.00 in
03:27 53.1 °F 43.6 °F 23.60 in Calm   -999 mph 70% 0.00 in
03:42 52.9 °F 43.8 °F 23.60 in Calm   -999 mph 71% 0.00 in
03:58 52.7 °F 44.3 °F 23.60 in Calm   -999 mph 73% 0.00 in
04:13 52.3 °F 43.2 °F 23.60 in Calm   -999 mph 71% 0.00 in
04:28 52.2 °F 43.1 °F 23.60 in Calm   -999 mph 71% 0.00 in
04:43 52 °F 43.3 °F 23.60 in Calm   -999 mph 72% 0.00 in
04:58 51.6 °F 42.1 °F 23.60 in Calm   -999 mph 70% 0.00 in
05:14 51.8 °F 42.3 °F 23.60 in Calm   -999 mph 70% 0.00 in
05:29 51.4 °F 41.9 °F 23.60 in Calm   -999 mph 70% 0.00 in
05:44 51.4 °F 42.3 °F 23.61 in Calm   -999 mph 71% 0.00 in
05:59 51.3 °F 43.3 °F 23.61 in Calm   -999 mph 74% 0.00 in
06:15 51.3 °F 43.3 °F 23.61 in Calm   -999 mph 74% 0.00 in
06:30 51.4 °F 43.4 °F 23.61 in Calm   -999 mph 74% 0.00 in
06:45 51.6 °F 43.9 °F 23.61 in Calm   -999 mph 75% 0.00 in
07:00 52.3 °F 45 °F 23.61 in Calm   -999 mph 76% 0.00 in
07:15 52.9 °F 44.8 °F 23.61 in Calm   -999 mph 74% 0.00 in
07:31 53.4 °F 46 °F 23.61 in Calm   -999 mph 76% 0.00 in
07:46 54.5 °F 47.1 °F 23.61 in Calm   -999 mph 76% 0.00 in
08:02 56.1 °F 47.6 °F 23.61 in Calm   -999 mph 73% 0.00 in
08:17 58.1 °F 48 °F 23.61 in Calm   -999 mph 69% 0.00 in
08:32 59.9 °F 48.9 °F 23.61 in Calm   -999 mph 67% 0.00 in
08:47 61.9 °F 51.6 °F 23.61 in Calm   -999 mph 69% 0.00 in
09:02 64 °F 50.3 °F 23.61 in Calm   -999 mph 61% 0.00 in
09:18 66 °F 47.9 °F 23.61 in Calm   -999 mph 52% 0.00 in
09:33 69.1 °F 48.6 °F 23.61 in Calm   -999 mph 48% 0.00 in
09:48 74.1 °F 46.2 °F 23.61 in Calm   -999 mph 37% 0.00 in
10:04 76.3 °F 45.9 °F 23.61 in Calm   -999 mph 34% 0.00 in
10:19 77.5 °F 47.7 °F 23.61 in Calm   -999 mph 35% 0.00 in
10:34 76.3 °F 49.5 °F 23.61 in Calm   -999 mph 39% 0.00 in
10:49 75.4 °F 48 °F 23.61 in Calm   -999 mph 38% 0.00 in
11:05 76.6 °F 46.9 °F 23.61 in Calm   -999 mph 35% 0.00 in
11:20 79.5 °F 47.9 °F 23.61 in Calm   -999 mph 33% 0.00 in
11:35 81.3 °F 46.9 °F 23.62 in Calm   -999 mph 30% 0.00 in
11:50 81.5 °F 49.6 °F 23.61 in Calm   -999 mph 33% 0.00 in
12:05 78.8 °F 47.3 °F 23.62 in Calm   -999 mph 33% 0.00 in
12:21 83.1 °F 48.5 °F 23.61 in Calm   -999 mph 30% 0.00 in
12:36 80.8 °F 47.4 °F 23.61 in Calm   -999 mph 31% 0.00 in
12:51 82 °F 46.6 °F 23.61 in Calm   -999 mph 29% 0.00 in
13:06 83.7 °F 47.1 °F 23.60 in Calm   -999 mph 28% 0.00 in
13:22 85.3 °F 46.5 °F 23.60 in Calm   -999 mph 26% 0.00 in
13:37 86.7 °F 46.7 °F 23.60 in Calm   -999 mph 25% 0.00 in
13:52 85.5 °F 46.7 °F 23.60 in Calm   -999 mph 26% 0.00 in
14:07 86.7 °F 45.6 °F 23.60 in Calm   -999 mph 24% 0.00 in
14:22 86.9 °F 44.7 °F 23.59 in Calm   -999 mph 23% 0.00 in
14:38 86.7 °F 44.5 °F 23.59 in NW 3.7 mph -999 mph 23% 0.00 in
14:53 86.7 °F 43.3 °F 23.59 in Calm   -999 mph 22% 0.00 in
15:08 86.5 °F 43.2 °F 23.58 in Calm   -999 mph 22% 0.00 in
15:23 86.4 °F 43.1 °F 23.58 in Calm   -999 mph 22% 0.00 in
15:38 86.2 °F 44.1 °F 23.58 in Calm   -999 mph 23% 0.00 in
15:54 85.5 °F 41.1 °F 23.58 in Calm   -999 mph 21% 0.00 in
16:09 84.4 °F 41.4 °F 23.58 in SSW 1.1 mph -999 mph 22% 0.00 in
16:24 83.5 °F 40.7 °F 23.57 in Calm   -999 mph 22% 0.00 in
16:39 84.2 °F 42.4 °F 23.57 in Calm   -999 mph 23% 0.00 in
16:54 86.4 °F 43.1 °F 23.57 in Calm   -999 mph 22% 0.00 in
17:10 87.4 °F 42.7 °F 23.56 in Calm   -999 mph 21% 0.00 in
17:25 89.1 °F 44.1 °F 23.56 in Calm   -999 mph 21% 0.00 in
17:40 86.9 °F 42.3 °F 23.56 in Calm   -999 mph 21% 0.00 in
17:55 85.8 °F 42.6 °F 23.56 in Calm   -999 mph 22% 0.00 in
18:10 86.5 °F 41.9 °F 23.56 in Calm   -999 mph 21% 0.00 in
18:26 85.5 °F 42.3 °F 23.56 in Calm   -999 mph 22% 0.00 in
18:41 85.1 °F 44.3 °F 23.56 in Calm   -999 mph 24% 0.00 in
18:56 83.5 °F 45 °F 23.56 in Calm   -999 mph 26% 0.00 in
19:11 81.1 °F 44 °F 23.56 in Calm   -999 mph 27% 0.00 in
19:27 78.1 °F 43.3 °F 23.56 in Calm   -999 mph 29% 0.00 in
19:42 74.1 °F 41.5 °F 23.56 in Calm   -999 mph 31% 0.00 in
19:57 72.7 °F 40.3 °F 23.56 in Calm   -999 mph 31% 0.00 in
20:12 71.2 °F 39.8 °F 23.57 in Calm   -999 mph 32% 0.00 in
20:27 69.8 °F 40.2 °F 23.57 in Calm   -999 mph 34% 0.00 in
20:43 68.7 °F 39.2 °F 23.57 in Calm   -999 mph 34% 0.00 in
20:58 68.2 °F 38.8 °F 23.57 in Calm   -999 mph 34% 0.00 in
21:13 67.6 °F 37.5 °F 23.57 in Calm   -999 mph 33% 0.00 in
21:28 66.7 °F 37.4 °F 23.58 in Calm   -999 mph 34% 0.00 in
21:43 66.2 °F 37 °F 23.58 in Calm   -999 mph 34% 0.00 in
21:59 65.3 °F 35.5 °F 23.58 in Calm   -999 mph 33% 0.00 in
22:14 64.6 °F 35.6 °F 23.59 in Calm   -999 mph 34% 0.00 in
22:29 63.7 °F 36.2 °F 23.59 in Calm   -999 mph 36% 0.00 in
22:44 63.3 °F 35.2 °F 23.59 in Calm   -999 mph 35% 0.00 in
22:59 62.6 °F 34.6 °F 23.59 in Calm   -999 mph 35% 0.00 in
23:15 61.9 °F 34.6 °F 23.59 in Calm   -999 mph 36% 0.00 in
23:30 61 °F 35.2 °F 23.59 in Calm   -999 mph 38% 0.00 in
23:45 60.3 °F 35.2 °F 23.59 in Calm   -999 mph 39% 0.00 in
Big Bear CA Weather